Time;durP1;ratioP1;P1;durP2;ratioP2;P2;SDS_P1;SDS_P2;PMS_P1;PMS_P2;Temp;Humidity;BMP_temperature;BMP_pressure;BME280_temperature;BME280_humidity;BME280_pressure;Samples;Min_cycle;Max_cycle;Signal;HPM_P1;HPM_P2
2023/04/13 00:01:15;;;;;;;1999.90;999.90;;;25.60;94.50;;;;;;5039675;28;20033;-69
2023/04/13 00:03:44;;;;;;;1999.90;999.90;;;24.70;95.50;;;;;;5044320;28;20524;-69
2023/04/13 00:06:11;;;;;;;1999.90;999.90;;;24.00;96.20;;;;;;5050279;28;20037;-69
2023/04/13 00:08:41;;;;;;;1999.90;999.90;;;23.40;97.20;;;;;;5040575;28;20049;-69
2023/04/13 00:11:09;;;;;;;1999.90;999.90;;;22.90;97.80;;;;;;5050839;28;20032;-69
2023/04/13 00:13:39;;;;;;;1999.90;999.90;;;22.50;98.40;;;;;;5043592;28;20035;-68
2023/04/13 00:16:09;;;;;;;1999.90;999.90;;;22.30;99.20;;;;;;5052607;28;20033;-68
2023/04/13 00:18:37;;;;;;;1999.90;999.90;;;22.30;99.70;;;;;;5040724;28;20049;-68
2023/04/13 00:21:05;;;;;;;1999.90;999.90;;;22.30;99.60;;;;;;5031745;28;20032;-69
2023/04/13 00:23:32;;;;;;;1999.90;999.90;;;22.40;99.80;;;;;;5031585;28;20057;-68
2023/04/13 00:26:00;;;;;;;1999.90;999.90;;;22.50;99.80;;;;;;5029233;28;20832;-69
2023/04/13 00:28:28;;;;;;;1999.90;999.90;;;22.60;99.60;;;;;;5029766;28;20109;-69
2023/04/13 00:30:56;;;;;;;1999.90;999.90;;;22.70;99.50;;;;;;5031402;28;20086;-70
2023/04/13 00:33:23;;;;;;;1999.90;999.90;;;23.20;99.80;;;;;;5030478;28;20515;-69
2023/04/13 00:35:51;;;;;;;1999.90;999.90;;;24.00;98.50;;;;;;5037490;28;20040;-68
2023/04/13 00:38:18;;;;;;;1999.90;999.90;;;24.50;98.10;;;;;;5029546;28;20060;-71
2023/04/13 00:40:46;;;;;;;1999.90;999.90;;;24.50;97.30;;;;;;5033341;28;20575;-71
2023/04/13 00:43:16;;;;;;;1999.90;999.90;;;24.30;97.40;;;;;;5033361;28;20612;-69
2023/04/13 00:45:44;;;;;;;1999.90;999.90;;;23.90;98.00;;;;;;5038183;28;20057;-70
2023/04/13 00:48:12;;;;;;;1999.90;999.90;;;23.60;98.50;;;;;;5047963;28;20037;-69
2023/04/13 00:50:41;;;;;;;1999.90;999.90;;;23.40;98.80;;;;;;5050192;28;20035;-70
2023/04/13 00:53:12;;;;;;;1999.90;999.90;;;23.90;99.10;;;;;;5053406;28;20036;-70
2023/04/13 00:55:41;;;;;;;1999.90;999.90;;;24.60;98.60;;;;;;5051733;28;22305;-68
2023/04/13 00:58:09;;;;;;;1999.90;999.90;;;25.30;98.00;;;;;;5043543;28;20098;-72
2023/04/13 01:00:41;;;;;;;1999.90;999.90;;;25.60;97.40;;;;;;5049954;28;20386;-70
2023/04/13 01:03:10;;;;;;;1999.90;999.90;;;25.70;96.80;;;;;;5055830;28;20116;-68
2023/04/13 01:06:04;;;;;;;1999.90;999.90;;;26.40;96.70;;;;;;5043979;28;20484;-68
2023/04/13 01:08:49;;;;;;;1999.90;999.90;;;27.60;95.30;;;;;;5037310;28;20054;-69
2023/04/13 01:11:38;;;;;;;1999.90;999.90;;;28.80;94.30;;;;;;5044338;28;20033;-70
2023/04/13 01:14:22;;;;;;;1999.90;999.90;;;29.90;93.20;;;;;;5047742;28;20030;-69
2023/04/13 01:17:00;;;;;;;1999.90;999.90;;;30.70;92.40;;;;;;5048692;28;20115;-69
2023/04/13 01:19:57;;;;;;;1999.90;999.90;;;31.30;91.90;;;;;;5050519;28;20041;-70
2023/04/13 01:22:28;;;;;;;1999.90;999.90;;;31.80;91.10;;;;;;5046621;28;20726;-70
2023/04/13 01:25:27;;;;;;;1999.90;999.90;;;32.20;90.80;;;;;;5044702;28;20026;-71
2023/04/13 01:28:02;;;;;;;1999.90;999.90;;;31.20;90.10;;;;;;5051238;28;20378;-70
2023/04/13 01:30:32;;;;;;;1999.90;999.90;;;29.60;91.20;;;;;;5049248;28;20499;-70
2023/04/13 01:33:03;;;;;;;1999.90;999.90;;;28.50;91.80;;;;;;5048457;28;20036;-70
2023/04/13 01:35:31;;;;;;;1999.90;999.90;;;28.70;92.70;;;;;;5047696;28;20139;-70
2023/04/13 01:37:59;;;;;;;1999.90;999.90;;;29.40;92.20;;;;;;5034948;28;20039;-69
2023/04/13 01:40:28;;;;;;;1999.90;999.90;;;30.30;91.80;;;;;;5041124;28;20025;-70
2023/04/13 01:42:56;;;;;;;1999.90;999.90;;;30.40;91.20;;;;;;5042579;28;20032;-70
2023/04/13 01:45:50;;;;;;;1999.90;999.90;;;29.90;90.40;;;;;;5046971;28;20661;-69
2023/04/13 01:48:26;;;;;;;1999.90;999.90;;;28.80;91.30;;;;;;5041012;28;20060;-70
2023/04/13 01:51:13;;;;;;;1999.90;999.90;;;27.60;92.20;;;;;;5047608;28;20029;-69
2023/04/13 01:53:55;;;;;;;1999.90;999.90;;;26.50;94.10;;;;;;5042917;28;20428;-71
2023/04/13 01:56:23;;;;;;;1999.90;999.90;;;25.70;94.90;;;;;;5050301;28;20029;-72
2023/04/13 01:58:58;;;;;;;1999.90;999.90;;;25.10;95.40;;;;;;5043691;28;20049;-70
2023/04/13 02:01:26;;;;;;;1999.90;999.90;;;25.10;95.90;;;;;;5046757;28;20078;-71
2023/04/13 02:03:54;;;;;;;1999.90;999.90;;;25.10;95.40;;;;;;5043543;28;20506;-70
2023/04/13 02:06:22;;;;;;;1999.90;999.90;;;24.90;95.30;;;;;;5036914;28;20035;-70
2023/04/13 02:08:49;;;;;;;1999.90;999.90;;;24.70;95.60;;;;;;5037914;28;20388;-71
2023/04/13 02:11:17;;;;;;;1999.90;999.90;;;24.50;95.80;;;;;;5046152;28;20029;-70
2023/04/13 02:13:46;;;;;;;1999.90;999.90;;;24.30;95.90;;;;;;5037928;28;20047;-69
2023/04/13 02:16:14;;;;;;;1999.90;999.90;;;24.30;96.40;;;;;;5047211;28;20040;-70
2023/04/13 02:18:42;;;;;;;1999.90;999.90;;;25.30;96.40;;;;;;5044476;28;20100;-71
2023/04/13 02:21:10;;;;;;;1999.90;999.90;;;26.60;95.10;;;;;;5052640;28;20029;-69
2023/04/13 02:23:39;;;;;;;1999.90;999.90;;;27.70;93.80;;;;;;5048227;28;20026;-71
2023/04/13 02:26:15;;;;;;;1999.90;999.90;;;28.10;93.30;;;;;;5044410;28;20028;-71
2023/04/13 02:28:42;;;;;;;1999.90;999.90;;;27.70;92.40;;;;;;5048610;28;20048;-69
2023/04/13 02:31:15;;;;;;;1999.90;999.90;;;27.00;92.60;;;;;;5052029;28;20477;-69
2023/04/13 02:33:43;;;;;;;1999.90;999.90;;;26.40;93.40;;;;;;5043667;28;20509;-69
2023/04/13 02:36:11;;;;;;;1999.90;999.90;;;25.80;94.00;;;;;;5059662;28;20025;-70
2023/04/13 02:38:38;;;;;;;1999.90;999.90;;;25.50;94.60;;;;;;5050342;28;20044;-68
2023/04/13 02:41:06;;;;;;;1999.90;999.90;;;25.70;94.90;;;;;;5044515;28;20513;-70
2023/04/13 02:43:34;;;;;;;1999.90;999.90;;;26.40;94.60;;;;;;5053911;28;20465;-70
2023/04/13 02:46:01;;;;;;;1999.90;999.90;;;26.70;94.70;;;;;;5049311;28;20106;-70
2023/04/13 02:48:29;;;;;;;1999.90;999.90;;;26.40;93.60;;;;;;5040505;28;20561;-70
2023/04/13 02:50:56;;;;;;;1999.90;999.90;;;26.00;93.90;;;;;;5042660;28;20467;-70
2023/04/13 02:53:24;;;;;;;1999.90;999.90;;;25.70;94.40;;;;;;5050746;28;20112;-70
2023/04/13 02:55:52;;;;;;;1999.90;999.90;;;25.60;94.90;;;;;;5047180;28;20067;-69
2023/04/13 02:58:22;;;;;;;1999.90;999.90;;;25.60;94.70;;;;;;5047848;28;20032;-69
2023/04/13 03:00:49;;;;;;;1999.90;999.90;;;25.70;94.50;;;;;;5045527;28;20606;-69
2023/04/13 03:03:17;;;;;;;1999.90;999.90;;;25.80;94.60;;;;;;5051749;28;20493;-70
2023/04/13 03:05:45;;;;;;;1999.90;999.90;;;25.80;94.40;;;;;;5044113;28;20103;-70
2023/04/13 03:08:13;;;;;;;1999.90;999.90;;;25.70;94.50;;;;;;5044450;28;20040;-69
2023/04/13 03:10:40;;;;;;;1999.90;999.90;;;25.50;94.50;;;;;;5035762;28;20032;-69
2023/04/13 03:13:07;;;;;;;1999.90;999.90;;;25.20;96.40;;;;;;5044653;28;20028;-72
2023/04/13 03:15:35;;;;;;;1999.90;999.90;;;24.70;98.00;;;;;;5038643;28;20036;-69
2023/04/13 03:18:03;;;;;;;1999.90;999.90;;;24.20;99.80;;;;;;5044183;28;20024;-70
2023/04/13 03:20:30;;;;;;;1999.90;999.90;;;23.80;99.90;;;;;;5057263;28;20025;-71
2023/04/13 03:22:58;;;;;;;1999.90;999.90;;;23.60;99.90;;;;;;5050305;28;20064;-70
2023/04/13 03:25:25;;;;;;;1999.90;999.90;;;23.50;99.90;;;;;;5056526;28;20043;-71
2023/04/13 03:27:52;;;;;;;1999.90;999.90;;;23.80;99.90;;;;;;5053992;28;20091;-71
2023/04/13 03:30:20;;;;;;;1999.90;999.90;;;23.90;99.90;;;;;;5046181;28;20468;-71
2023/04/13 03:32:47;;;;;;;1999.90;999.90;;;24.00;99.90;;;;;;5052941;28;20051;-71
2023/04/13 03:35:15;;;;;;;1999.90;999.90;;;24.00;99.80;;;;;;5040917;28;20021;-70
2023/04/13 03:37:43;;;;;;;1999.90;999.90;;;24.10;99.00;;;;;;5045106;28;20040;-70
2023/04/13 03:40:11;;;;;;;1999.90;999.90;;;24.20;97.90;;;;;;5044165;28;20079;-71
2023/04/13 03:42:39;;;;;;;1999.90;999.90;;;24.30;97.10;;;;;;5049450;28;20021;-71
2023/04/13 03:45:06;;;;;;;1999.90;999.90;;;24.50;97.00;;;;;;5047631;28;20122;-71
2023/04/13 03:47:34;;;;;;;1999.90;999.90;;;24.70;96.70;;;;;;5048777;28;20380;-69
2023/04/13 03:50:02;;;;;;;1999.90;999.90;;;24.70;96.80;;;;;;5043896;28;20033;-70
2023/04/13 03:52:30;;;;;;;1999.90;999.90;;;24.70;97.00;;;;;;5043989;28;20029;-71
2023/04/13 03:54:57;;;;;;;1999.90;999.90;;;24.60;97.00;;;;;;5036094;28;20025;-70
2023/04/13 03:57:26;;;;;;;1999.90;999.90;;;24.40;97.50;;;;;;5033480;28;20114;-70
2023/04/13 03:59:53;;;;;;;1999.90;999.90;;;24.30;97.90;;;;;;5031288;28;20124;-70
2023/04/13 04:02:21;;;;;;;1999.90;999.90;;;25.00;97.80;;;;;;5048244;28;20108;-71
2023/04/13 04:04:48;;;;;;;1999.90;999.90;;;25.90;98.00;;;;;;5055900;28;20718;-70
2023/04/13 04:07:16;;;;;;;1999.90;999.90;;;26.20;98.20;;;;;;5042497;28;20061;-70
2023/04/13 04:09:43;;;;;;;1999.90;999.90;;;26.00;98.20;;;;;;5027296;28;20045;-69
2023/04/13 04:12:10;;;;;;;1999.90;999.90;;;25.50;98.60;;;;;;5031319;28;20498;-70
2023/04/13 04:14:39;;;;;;;1999.90;999.90;;;24.90;99.50;;;;;;5031044;28;20037;-70
2023/04/13 04:17:06;;;;;;;1999.90;999.90;;;24.30;99.90;;;;;;5031535;28;20667;-71
2023/04/13 04:19:34;;;;;;;1999.90;999.90;;;23.80;99.90;;;;;;5032349;28;20033;-70
2023/04/13 04:22:05;;;;;;;1999.90;999.90;;;23.40;99.90;;;;;;5030376;28;20029;-71
2023/04/13 04:24:34;;;;;;;1999.90;999.90;;;23.30;99.90;;;;;;5035176;28;20033;-70
2023/04/13 04:27:04;;;;;;;1999.90;999.90;;;23.50;99.90;;;;;;5031121;28;20032;-70
2023/04/13 04:29:34;;;;;;;1999.90;999.90;;;23.90;99.90;;;;;;5026448;28;20487;-70
2023/04/13 04:32:04;;;;;;;1999.90;999.90;;;24.30;99.90;;;;;;5033449;28;20037;-70
2023/04/13 04:34:31;;;;;;;1999.90;999.90;;;24.50;99.90;;;;;;5030589;28;20388;-69
2023/04/13 04:37:04;;;;;;;1999.90;999.90;;;24.80;99.90;;;;;;5049891;28;20037;-70
2023/04/13 04:39:34;;;;;;;1999.90;999.90;;;25.00;99.90;;;;;;5050592;28;20510;-71
2023/04/13 04:42:04;;;;;;;1999.90;999.90;;;25.30;99.90;;;;;;5055491;28;20529;-69
2023/04/13 04:44:31;;;;;;;1999.90;999.90;;;25.50;99.90;;;;;;5040882;28;20037;-68
2023/04/13 04:46:59;;;;;;;1999.90;999.90;;;25.50;99.70;;;;;;5052908;28;20051;-69
2023/04/13 04:49:30;;;;;;;1999.90;999.90;;;25.30;99.40;;;;;;5047933;28;20430;-69
2023/04/13 04:51:58;;;;;;;1999.90;999.90;;;25.00;99.40;;;;;;5039016;28;20041;-69
2023/04/13 04:54:25;;;;;;;1999.90;999.90;;;25.00;99.20;;;;;;5044404;28;20120;-69
2023/04/13 04:56:53;;;;;;;1999.90;999.90;;;25.20;98.20;;;;;;5045836;28;20103;-68
2023/04/13 04:59:20;;;;;;;1999.90;999.90;;;25.40;97.40;;;;;;5044049;28;20119;-69
2023/04/13 05:01:48;;;;;;;1999.90;999.90;;;25.60;96.90;;;;;;5049919;28;20547;-69
2023/04/13 05:04:16;;;;;;;1999.90;999.90;;;25.90;96.60;;;;;;5047443;28;20106;-69
2023/04/13 05:06:43;;;;;;;1999.90;999.90;;;26.00;96.10;;;;;;5038649;28;20056;-71
2023/04/13 05:09:11;;;;;;;1999.90;999.90;;;26.30;95.70;;;;;;5040727;28;20517;-69
2023/04/13 05:11:38;;;;;;;1999.90;999.90;;;26.50;95.50;;;;;;5041768;28;20503;-69
2023/04/13 05:14:06;;;;;;;1999.90;999.90;;;26.50;94.70;;;;;;5046590;28;20041;-68
2023/04/13 05:16:33;;;;;;;1999.90;999.90;;;26.30;95.10;;;;;;5048802;28;20379;-68
2023/04/13 05:19:00;;;;;;;1999.90;999.90;;;26.00;95.70;;;;;;5045983;28;20025;-68
2023/04/13 05:21:28;;;;;;;1999.90;999.90;;;25.40;98.10;;;;;;5039442;28;20503;-68
2023/04/13 05:23:55;;;;;;;1999.90;999.90;;;24.70;99.90;;;;;;5046451;28;20040;-69
2023/04/13 05:26:24;;;;;;;1999.90;999.90;;;24.00;99.90;;;;;;5049309;28;20032;-69
2023/04/13 05:28:51;;;;;;;1999.90;999.90;;;23.40;99.90;;;;;;5037978;28;20041;-70
2023/04/13 05:31:19;;;;;;;1999.90;999.90;;;22.80;99.90;;;;;;5056760;28;20110;-70
2023/04/13 05:33:46;;;;;;;1999.90;999.90;;;22.50;99.90;;;;;;5050531;28;20055;-70
2023/04/13 05:36:14;;;;;;;1999.90;999.90;;;22.20;99.90;;;;;;5051015;28;20395;-69
2023/04/13 05:38:41;;;;;;;1999.90;999.90;;;21.90;99.90;;;;;;5058817;28;20040;-71
2023/04/13 05:41:09;;;;;;;1999.90;999.90;;;21.80;99.90;;;;;;5048178;28;20025;-70
2023/04/13 05:43:36;;;;;;;1999.90;999.90;;;21.80;99.90;;;;;;5049034;28;20060;-72
2023/04/13 05:46:04;;;;;;;1999.90;999.90;;;21.90;99.90;;;;;;5053436;28;20149;-70
2023/04/13 05:48:31;;;;;;;1999.90;999.90;;;22.10;99.90;;;;;;5043753;28;21062;-70
2023/04/13 05:50:59;;;;;;;1999.90;999.90;;;22.40;99.90;;;;;;5054519;28;20044;-69
2023/04/13 05:53:26;;;;;;;1999.90;999.90;;;22.60;99.90;;;;;;5034644;28;20055;-70
2023/04/13 05:55:54;;;;;;;1999.90;999.90;;;22.80;99.90;;;;;;5036962;28;20033;-68
2023/04/13 05:58:25;;;;;;;1999.90;999.90;;;22.90;99.90;;;;;;5041286;28;20060;-70
2023/04/13 06:00:53;;;;;;;1999.90;999.90;;;23.10;99.90;;;;;;5053525;28;20033;-70
2023/04/13 06:03:20;;;;;;;1999.90;999.90;;;23.10;99.90;;;;;;5044502;28;20032;-70
2023/04/13 06:05:47;;;;;;;1999.90;999.90;;;23.20;99.90;;;;;;5051850;28;20029;-67
2023/04/13 06:08:15;;;;;;;1999.90;999.90;;;23.20;99.90;;;;;;5050540;28;20061;-69
2023/04/13 06:10:45;;;;;;;1999.90;999.90;;;23.30;99.90;;;;;;5048028;28;20037;-69
2023/04/13 06:13:13;;;;;;;1999.90;999.90;;;23.30;99.90;;;;;;5041871;28;20029;-69
2023/04/13 06:15:41;;;;;;;1999.90;999.90;;;23.30;99.90;;;;;;5046336;28;20421;-69
2023/04/13 06:18:08;;;;;;;1999.90;999.90;;;23.30;99.90;;;;;;5060761;28;20072;-69
2023/04/13 06:20:35;;;;;;;1999.90;999.90;;;23.30;99.90;;;;;;5056054;28;20070;-69
2023/04/13 06:23:03;;;;;;;1999.90;999.90;;;23.30;99.90;;;;;;5055857;28;20033;-69
2023/04/13 06:25:30;;;;;;;1999.90;999.90;;;23.30;99.90;;;;;;5046841;28;20078;-69
2023/04/13 06:28:00;;;;;;;1999.90;999.90;;;23.30;99.90;;;;;;5051437;28;20039;-68
2023/04/13 06:30:28;;;;;;;1999.90;999.90;;;23.30;99.90;;;;;;5044026;28;20074;-69
2023/04/13 06:32:55;;;;;;;1999.90;999.90;;;23.30;99.90;;;;;;5050626;28;20073;-69
2023/04/13 06:35:22;;;;;;;1999.90;999.90;;;23.20;99.90;;;;;;5042997;28;20167;-68
2023/04/13 06:37:50;;;;;;;1999.90;999.90;;;23.10;99.90;;;;;;5046755;28;20487;-69
2023/04/13 06:40:19;;;;;;;1999.90;999.90;;;23.00;99.90;;;;;;5041634;28;20028;-68
2023/04/13 06:42:47;;;;;;;1999.90;999.90;;;22.90;99.90;;;;;;5043235;28;20033;-69
2023/04/13 06:45:14;;;;;;;1999.90;999.90;;;22.80;99.90;;;;;;5043481;28;20037;-69
2023/04/13 06:47:42;;;;;;;1999.90;999.90;;;22.70;99.90;;;;;;5044340;28;20021;-69
2023/04/13 06:50:12;;;;;;;1999.90;999.90;;;22.70;99.90;;;;;;5032234;28;20392;-69
2023/04/13 06:52:43;;;;;;;1999.90;999.90;;;22.60;99.90;;;;;;5035816;28;20100;-69
2023/04/13 06:55:10;;;;;;;1999.90;999.90;;;22.50;99.90;;;;;;5044815;28;20083;-69
2023/04/13 06:57:38;;;;;;;1999.90;999.90;;;22.40;99.90;;;;;;5045771;28;20075;-70
2023/04/13 07:00:09;;;;;;;1999.90;999.90;;;22.30;99.90;;;;;;5044180;28;20024;-70
2023/04/13 07:02:37;;;;;;;1999.90;999.90;;;22.30;99.90;;;;;;5045998;28;20422;-70
2023/04/13 07:05:05;;;;;;;1999.90;999.90;;;22.20;99.90;;;;;;5052012;28;20435;-70
2023/04/13 07:07:33;;;;;;;1999.90;999.90;;;22.10;99.90;;;;;;5048407;28;20131;-70
2023/04/13 07:10:04;;;;;;;1999.90;999.90;;;22.00;99.90;;;;;;5045137;28;20052;-70
2023/04/13 07:12:32;;;;;;;1999.90;999.90;;;21.90;99.90;;;;;;5040575;28;20091;-69
2023/04/13 07:15:00;;;;;;;1999.90;999.90;;;21.80;99.90;;;;;;5048748;28;20443;-70
2023/04/13 07:17:29;;;;;;;1999.90;999.90;;;21.80;99.90;;;;;;5049812;28;20028;-70
2023/04/13 07:19:56;;;;;;;1999.90;999.90;;;21.70;99.90;;;;;;5054894;28;20021;-70
2023/04/13 07:22:23;;;;;;;1999.90;999.90;;;21.70;99.90;;;;;;5055521;28;20120;-71
2023/04/13 07:24:51;;;;;;;1999.90;999.90;;;21.60;99.90;;;;;;5055201;28;20502;-70
2023/04/13 07:27:18;;;;;;;1999.90;999.90;;;21.50;99.90;;;;;;5054609;28;20043;-70
2023/04/13 07:29:45;;;;;;;1999.90;999.90;;;21.50;99.90;;;;;;5049509;28;20530;-70
2023/04/13 07:32:13;;;;;;;1999.90;999.90;;;21.40;99.90;;;;;;5056765;28;20625;-71
2023/04/13 07:34:40;;;;;;;1999.90;999.90;;;21.40;99.90;;;;;;5056618;28;20130;-69
2023/04/13 07:37:07;;;;;;;1999.90;999.90;;;21.30;99.90;;;;;;5053526;28;20058;-70
2023/04/13 07:39:35;;;;;;;1999.90;999.90;;;21.20;99.90;;;;;;5053920;28;20438;-70
2023/04/13 07:42:02;;;;;;;1999.90;999.90;;;21.10;99.90;;;;;;5052510;28;20033;-69
2023/04/13 07:44:30;;;;;;;1999.90;999.90;;;21.00;99.90;;;;;;5042706;28;20020;-70
2023/04/13 07:46:57;;;;;;;1999.90;999.90;;;20.90;99.90;;;;;;5049615;28;20024;-70
2023/04/13 07:49:24;;;;;;;1999.90;999.90;;;20.80;99.90;;;;;;5046425;28;20033;-70
2023/04/13 07:51:53;;;;;;;1999.90;999.90;;;20.60;99.90;;;;;;5044245;28;20037;-70
2023/04/13 07:54:21;;;;;;;1999.90;999.90;;;20.50;99.90;;;;;;5050105;28;20495;-70
2023/04/13 07:56:48;;;;;;;1999.90;999.90;;;20.40;99.90;;;;;;5040088;28;20464;-71
2023/04/13 07:59:16;;;;;;;1999.90;999.90;;;20.30;99.90;;;;;;5043317;28;20032;-72
2023/04/13 08:01:43;;;;;;;1999.90;999.90;;;20.20;99.90;;;;;;5036486;28;20156;-71
2023/04/13 08:04:10;;;;;;;1999.90;999.90;;;20.10;99.90;;;;;;5044469;28;20040;-69
2023/04/13 08:06:37;;;;;;;1999.90;999.90;;;20.00;99.90;;;;;;5042204;28;20144;-71
2023/04/13 08:09:05;;;;;;;1999.90;999.90;;;19.90;99.90;;;;;;5037879;28;20053;-70
2023/04/13 08:11:33;;;;;;;1999.90;999.90;;;19.80;99.90;;;;;;5044970;28;20025;-71
2023/04/13 08:14:00;;;;;;;1999.90;999.90;;;19.70;99.90;;;;;;5052921;28;20086;-71
2023/04/13 08:16:33;;;;;;;1999.90;999.90;;;19.60;99.90;;;;;;5040160;28;20029;-70
2023/04/13 08:19:01;;;;;;;1999.90;999.90;;;19.50;99.90;;;;;;5042452;28;20181;-70
2023/04/13 08:21:28;;;;;;;1999.90;999.90;;;19.40;99.90;;;;;;5043984;28;20499;-71
2023/04/13 08:23:56;;;;;;;1999.90;999.90;;;19.30;99.90;;;;;;5042464;28;20036;-71
2023/04/13 08:26:23;;;;;;;1999.90;999.90;;;19.30;99.90;;;;;;5040193;28;20766;-70
2023/04/13 08:28:54;;;;;;;1999.90;999.90;;;19.20;99.90;;;;;;5042851;28;20037;-71
2023/04/13 08:31:22;;;;;;;1999.90;999.90;;;19.20;99.90;;;;;;5048696;28;20029;-70
2023/04/13 08:33:49;;;;;;;1999.90;999.90;;;19.10;99.90;;;;;;5051205;28;20032;-70
2023/04/13 08:36:17;;;;;;;1999.90;999.90;;;19.10;99.90;;;;;;5045870;28;20036;-70
2023/04/13 08:38:45;;;;;;;1999.90;999.90;;;19.00;99.90;;;;;;5057800;28;20127;-70
2023/04/13 08:41:13;;;;;;;1999.90;999.90;;;18.90;99.90;;;;;;5045532;28;20308;-71
2023/04/13 08:43:40;;;;;;;1999.90;999.90;;;18.90;99.90;;;;;;5042873;28;20032;-71
2023/04/13 08:46:08;;;;;;;1999.90;999.90;;;18.90;99.90;;;;;;5039998;28;20116;-70
2023/04/13 08:48:44;;;;;;;1999.90;999.90;;;18.90;99.90;;;;;;5043566;28;20069;-68
2023/04/13 08:51:12;;;;;;;1999.90;999.90;;;18.90;99.90;;;;;;5048251;28;20034;-69
2023/04/13 08:53:40;;;;;;;1999.90;999.90;;;18.90;99.90;;;;;;5045733;28;20082;-69
2023/04/13 08:56:12;;;;;;;1999.90;999.90;;;18.80;99.90;;;;;;5049147;28;20014;-68
2023/04/13 08:58:44;;;;;;;1999.90;999.90;;;18.80;99.90;;;;;;5044437;28;20044;-69
2023/04/13 09:01:14;;;;;;;1999.90;999.90;;;18.60;99.90;;;;;;5042012;28;20471;-69
2023/04/13 09:03:53;;;;;;;1999.90;999.90;;;18.60;99.90;;;;;;5042894;28;20486;-68
2023/04/13 09:06:34;;;;;;;1999.90;999.90;;;18.50;99.90;;;;;;5046865;28;20070;-68
2023/04/13 09:09:05;;;;;;;1999.90;999.90;;;18.40;99.90;;;;;;5054822;28;20177;-67
2023/04/13 09:11:33;;;;;;;1999.90;999.90;;;18.30;99.90;;;;;;5052059;28;20124;-68
2023/04/13 09:14:01;;;;;;;1999.90;999.90;;;18.20;99.90;;;;;;5054174;28;20089;-68
2023/04/13 09:16:28;;;;;;;1999.90;999.90;;;18.10;99.90;;;;;;5053150;28;20064;-68
2023/04/13 09:18:57;;;;;;;1999.90;999.90;;;18.10;99.90;;;;;;5044666;28;20021;-68
2023/04/13 09:21:36;;;;;;;1999.90;999.90;;;18.00;99.90;;;;;;5036898;28;20381;-69
2023/04/13 09:24:04;;;;;;;1999.90;999.90;;;17.90;99.90;;;;;;5042658;28;20040;-69
2023/04/13 09:26:46;;;;;;;1999.90;999.90;;;17.90;99.90;;;;;;5039682;28;20529;-68
2023/04/13 09:29:18;;;;;;;1999.90;999.90;;;17.90;99.90;;;;;;5054603;28;20041;-68
2023/04/13 09:31:46;;;;;;;1999.90;999.90;;;17.90;99.90;;;;;;5055358;28;20085;-69
2023/04/13 09:34:28;;;;;;;1999.90;999.90;;;17.90;99.90;;;;;;5053778;28;20063;-68
2023/04/13 09:36:56;;;;;;;1999.90;999.90;;;18.00;99.90;;;;;;5047777;28;20037;-69
2023/04/13 09:39:27;;;;;;;1999.90;999.90;;;18.00;99.90;;;;;;5046384;28;20395;-68
2023/04/13 09:41:54;;;;;;;1999.90;999.90;;;18.10;99.90;;;;;;5051629;28;20048;-69
2023/04/13 09:44:33;;;;;;;1999.90;999.90;;;18.00;99.90;;;;;;5041710;28;20029;-70
2023/04/13 09:47:02;;;;;;;1999.90;999.90;;;18.00;99.90;;;;;;5048481;28;20025;-69
2023/04/13 09:49:40;;;;;;;1999.90;999.90;;;17.90;99.90;;;;;;5049485;28;20433;-69
2023/04/13 09:52:22;;;;;;;1999.90;999.90;;;17.90;99.90;;;;;;5049112;28;20039;-68
2023/04/13 09:54:54;;;;;;;1999.90;999.90;;;17.90;99.90;;;;;;5048638;28;20036;-69
2023/04/13 09:57:29;;;;;;;1999.90;999.90;;;17.90;99.90;;;;;;5046208;28;20029;-68
2023/04/13 09:59:59;;;;;;;1999.90;999.90;;;17.90;99.90;;;;;;5048658;28;20064;-68
2023/04/13 10:02:27;;;;;;;1999.90;999.90;;;17.90;99.90;;;;;;5056675;28;20495;-69
2023/04/13 10:04:55;;;;;;;1999.90;999.90;;;17.90;99.90;;;;;;5043596;28;20032;-69
2023/04/13 10:07:25;;;;;;;1999.90;999.90;;;17.90;99.90;;;;;;5045048;28;20047;-72
2023/04/13 10:09:55;;;;;;;1999.90;999.90;;;17.90;99.90;;;;;;5037798;28;20106;-68
2023/04/13 10:12:26;;;;;;;1999.90;999.90;;;17.90;99.90;;;;;;5048426;28;20029;-68
2023/04/13 10:15:03;;;;;;;1999.90;999.90;;;18.00;99.90;;;;;;5024683;28;20048;-70
2023/04/13 10:17:55;;;;;;;1999.90;999.90;;;18.00;99.90;;;;;;5043396;28;20120;-68
2023/04/13 10:20:23;;;;;;;1999.90;999.90;;;17.90;99.90;;;;;;5039070;28;20601;-70
2023/04/13 10:22:52;;;;;;;1999.90;999.90;;;17.90;99.90;;;;;;5042005;28;20037;-68
2023/04/13 10:25:20;;;;;;;1999.90;999.90;;;17.80;99.90;;;;;;5037870;28;20017;-68
2023/04/13 10:27:58;;;;;;;1999.90;999.90;;;17.80;99.90;;;;;;5044577;28;20047;-68
2023/04/13 10:30:26;;;;;;;1999.90;999.90;;;17.70;99.90;;;;;;5042504;28;20032;-70
2023/04/13 10:33:09;;;;;;;1999.90;999.90;;;17.70;99.90;;;;;;5041123;28;20551;-69
2023/04/13 10:35:37;;;;;;;1999.90;999.90;;;17.70;99.90;;;;;;5033888;28;20040;-68
2023/04/13 10:38:04;;;;;;;1999.90;999.90;;;17.70;99.90;;;;;;5038733;28;20125;-67
2023/04/13 10:40:51;;;;;;;1999.90;999.90;;;17.70;99.90;;;;;;5045228;28;20033;-67
2023/04/13 10:43:33;;;;;;;1999.90;999.90;;;17.70;99.90;;;;;;5039995;28;20025;-67
2023/04/13 10:46:07;;;;;;;1999.90;999.90;;;17.70;99.90;;;;;;5047453;28;20036;-69
2023/04/13 10:48:35;;;;;;;1999.90;999.90;;;17.70;99.90;;;;;;5042144;28;20060;-70
2023/04/13 10:51:03;;;;;;;1999.90;999.90;;;17.70;99.90;;;;;;5051182;28;20044;-70
2023/04/13 10:53:31;;;;;;;1999.90;999.90;;;17.80;99.90;;;;;;5048590;28;20034;-70
2023/04/13 10:55:59;;;;;;;1999.90;999.90;;;17.80;99.90;;;;;;5047044;28;20110;-70
2023/04/13 10:58:28;;;;;;;1999.90;999.90;;;17.80;99.90;;;;;;5044987;28;20025;-68
2023/04/13 11:00:57;;;;;;;1999.90;999.90;;;17.80;99.90;;;;;;5045921;28;20027;-68
2023/04/13 11:03:27;;;;;;;1999.90;999.90;;;17.80;99.90;;;;;;5047827;28;20033;-67
2023/04/13 11:06:01;;;;;;;1999.90;999.90;;;17.80;99.90;;;;;;5030450;28;20028;-68
2023/04/13 11:08:29;;;;;;;1999.90;999.90;;;17.80;99.90;;;;;;5027311;28;20403;-68
2023/04/13 11:10:57;;;;;;;1999.90;999.90;;;17.80;99.90;;;;;;5034337;28;20035;-67
2023/04/13 11:13:25;;;;;;;1999.90;999.90;;;17.80;99.90;;;;;;5039414;28;20113;-68
2023/04/13 11:16:00;;;;;;;1999.90;999.90;;;17.70;99.90;;;;;;5045182;28;20839;-68
2023/04/13 11:18:28;;;;;;;1999.90;999.90;;;17.70;99.90;;;;;;5045486;28;20116;-68
2023/04/13 11:20:55;;;;;;;1999.90;999.90;;;17.60;99.90;;;;;;5052183;28;20060;-68
2023/04/13 11:23:23;;;;;;;1999.90;999.90;;;17.60;99.90;;;;;;5044096;28;20120;-68
2023/04/13 11:26:03;;;;;;;1999.90;999.90;;;17.60;99.90;;;;;;5046666;28;20033;-68
2023/04/13 11:28:45;;;;;;;1999.90;999.90;;;17.60;99.90;;;;;;5045743;28;20033;-67
2023/04/13 11:31:13;;;;;;;1999.90;999.90;;;17.60;99.90;;;;;;5043947;28;20047;-68
2023/04/13 11:33:43;;;;;;;1999.90;999.90;;;17.50;99.90;;;;;;5045624;28;20137;-69
2023/04/13 11:36:11;;;;;;;1999.90;999.90;;;17.60;99.90;;;;;;5045828;28;20037;-68
2023/04/13 11:38:40;;;;;;;1999.90;999.90;;;17.60;99.90;;;;;;5044665;28;20034;-68
2023/04/13 11:41:09;;;;;;;1999.90;999.90;;;17.50;99.90;;;;;;5024850;28;20017;-70
2023/04/13 11:43:37;;;;;;;1999.90;999.90;;;17.50;99.90;;;;;;5040252;28;20057;-69
2023/04/13 11:46:04;;;;;;;1999.90;999.90;;;17.50;99.90;;;;;;5050698;28;20051;-67
2023/04/13 11:48:32;;;;;;;1999.90;999.90;;;17.40;99.90;;;;;;5048763;28;20567;-67
2023/04/13 11:51:00;;;;;;;1999.90;999.90;;;17.40;99.90;;;;;;5037270;28;20419;-67
2023/04/13 11:53:28;;;;;;;1999.90;999.90;;;17.50;99.90;;;;;;5040733;28;20056;-67
2023/04/13 11:55:56;;;;;;;1999.90;999.90;;;17.40;99.90;;;;;;5048629;28;20425;-67
2023/04/13 11:58:24;;;;;;;1999.90;999.90;;;17.40;99.90;;;;;;5044210;28;20388;-67
2023/04/13 12:00:53;;;;;;;1999.90;999.90;;;17.40;99.90;;;;;;5054985;28;20033;-68
2023/04/13 12:03:20;;;;;;;1999.90;999.90;;;17.40;99.90;;;;;;5050997;28;20135;-71
2023/04/13 12:05:48;;;;;;;1999.90;999.90;;;17.30;99.90;;;;;;5045994;28;20032;-71
2023/04/13 12:08:22;;;;;;;1999.90;999.90;;;17.30;99.90;;;;;;5043923;28;20150;-69
2023/04/13 12:10:58;;;;;;;1999.90;999.90;;;17.30;99.90;;;;;;5038342;28;20035;-70